sensor_id;sensor_type;location;lat;lon;timestamp;P1;durP1;ratioP1;P2;durP2;ratioP2
69161;SDS011;56269;51.738;21.652;2022-10-16T00:00:38;26.50;;;15.03;;
69161;SDS011;56269;51.738;21.652;2022-10-16T00:03:25;30.90;;;14.95;;
69161;SDS011;56269;51.738;21.652;2022-10-16T00:05:51;25.27;;;14.48;;
69161;SDS011;56269;51.738;21.652;2022-10-16T00:08:17;25.77;;;14.48;;
69161;SDS011;56269;51.738;21.652;2022-10-16T00:10:43;28.93;;;14.87;;
69161;SDS011;56269;51.738;21.652;2022-10-16T00:13:09;25.75;;;14.10;;
69161;SDS011;56269;51.738;21.652;2022-10-16T00:15:36;26.00;;;14.85;;
69161;SDS011;56269;51.738;21.652;2022-10-16T00:18:03;28.58;;;15.60;;
69161;SDS011;56269;51.738;21.652;2022-10-16T00:20:30;27.00;;;14.93;;
69161;SDS011;56269;51.738;21.652;2022-10-16T00:22:59;27.15;;;14.63;;
69161;SDS011;56269;51.738;21.652;2022-10-16T00:25:25;26.48;;;15.10;;
69161;SDS011;56269;51.738;21.652;2022-10-16T00:27:51;29.65;;;15.18;;
69161;SDS011;56269;51.738;21.652;2022-10-16T00:30:17;29.35;;;15.75;;
69161;SDS011;56269;51.738;21.652;2022-10-16T00:32:44;28.10;;;15.43;;
69161;SDS011;56269;51.738;21.652;2022-10-16T00:35:09;28.05;;;14.98;;
69161;SDS011;56269;51.738;21.652;2022-10-16T00:37:36;27.20;;;14.88;;
69161;SDS011;56269;51.738;21.652;2022-10-16T00:40:02;27.93;;;15.30;;
69161;SDS011;56269;51.738;21.652;2022-10-16T00:42:28;28.77;;;14.43;;
69161;SDS011;56269;51.738;21.652;2022-10-16T00:44:55;26.77;;;15.35;;
69161;SDS011;56269;51.738;21.652;2022-10-16T00:47:30;27.63;;;15.80;;
69161;SDS011;56269;51.738;21.652;2022-10-16T00:52:34;30.00;;;14.70;;
69161;SDS011;56269;51.738;21.652;2022-10-16T00:55:00;28.97;;;15.13;;
69161;SDS011;56269;51.738;21.652;2022-10-16T00:57:29;32.72;;;15.60;;
69161;SDS011;56269;51.738;21.652;2022-10-16T00:59:55;27.05;;;14.43;;
69161;SDS011;56269;51.738;21.652;2022-10-16T01:02:22;27.00;;;15.23;;
69161;SDS011;56269;51.738;21.652;2022-10-16T01:04:52;30.23;;;16.07;;
69161;SDS011;56269;51.738;21.652;2022-10-16T01:07:31;28.70;;;15.07;;
69161;SDS011;56269;51.738;21.652;2022-10-16T01:10:14;29.23;;;14.35;;
69161;SDS011;56269;51.738;21.652;2022-10-16T01:13:07;29.10;;;14.65;;
69161;SDS011;56269;51.738;21.652;2022-10-16T01:18:14;29.30;;;15.80;;
69161;SDS011;56269;51.738;21.652;2022-10-16T01:20:47;30.00;;;15.83;;
69161;SDS011;56269;51.738;21.652;2022-10-16T01:31:22;26.60;;;15.15;;
69161;SDS011;56269;51.738;21.652;2022-10-16T01:37:14;23.38;;;11.18;;
69161;SDS011;56269;51.738;21.652;2022-10-16T01:39:45;28.02;;;14.63;;
69161;SDS011;56269;51.738;21.652;2022-10-16T01:42:20;32.72;;;15.80;;
69161;SDS011;56269;51.738;21.652;2022-10-16T01:44:50;23.08;;;12.93;;
69161;SDS011;56269;51.738;21.652;2022-10-16T01:47:18;28.97;;;15.30;;
69161;SDS011;56269;51.738;21.652;2022-10-16T01:49:49;26.98;;;14.60;;
69161;SDS011;56269;51.738;21.652;2022-10-16T01:52:17;27.38;;;14.93;;
69161;SDS011;56269;51.738;21.652;2022-10-16T01:54:48;27.25;;;14.45;;
69161;SDS011;56269;51.738;21.652;2022-10-16T01:57:16;27.00;;;14.77;;
69161;SDS011;56269;51.738;21.652;2022-10-16T01:59:45;25.00;;;14.90;;
69161;SDS011;56269;51.738;21.652;2022-10-16T02:02:14;24.95;;;13.93;;
69161;SDS011;56269;51.738;21.652;2022-10-16T02:04:44;28.38;;;15.32;;
69161;SDS011;56269;51.738;21.652;2022-10-16T02:07:13;26.80;;;14.90;;
69161;SDS011;56269;51.738;21.652;2022-10-16T02:09:40;27.60;;;14.40;;
69161;SDS011;56269;51.738;21.652;2022-10-16T02:12:08;25.73;;;14.57;;
69161;SDS011;56269;51.738;21.652;2022-10-16T02:14:39;26.27;;;13.57;;
69161;SDS011;56269;51.738;21.652;2022-10-16T02:17:13;27.15;;;15.40;;
69161;SDS011;56269;51.738;21.652;2022-10-16T02:19:41;25.88;;;14.15;;
69161;SDS011;56269;51.738;21.652;2022-10-16T02:22:09;26.30;;;14.70;;
69161;SDS011;56269;51.738;21.652;2022-10-16T02:30:14;26.77;;;13.73;;
69161;SDS011;56269;51.738;21.652;2022-10-16T02:32:46;26.83;;;13.93;;
69161;SDS011;56269;51.738;21.652;2022-10-16T02:35:18;26.20;;;14.70;;
69161;SDS011;56269;51.738;21.652;2022-10-16T02:37:46;26.77;;;14.43;;
69161;SDS011;56269;51.738;21.652;2022-10-16T02:40:14;27.63;;;14.20;;
69161;SDS011;56269;51.738;21.652;2022-10-16T02:42:41;24.85;;;13.88;;
69161;SDS011;56269;51.738;21.652;2022-10-16T02:45:08;27.70;;;13.80;;
69161;SDS011;56269;51.738;21.652;2022-10-16T02:47:35;28.40;;;14.93;;
69161;SDS011;56269;51.738;21.652;2022-10-16T02:50:02;26.80;;;12.43;;
69161;SDS011;56269;51.738;21.652;2022-10-16T02:52:29;26.80;;;14.38;;
69161;SDS011;56269;51.738;21.652;2022-10-16T02:54:55;26.15;;;14.02;;
69161;SDS011;56269;51.738;21.652;2022-10-16T02:57:21;28.48;;;13.98;;
69161;SDS011;56269;51.738;21.652;2022-10-16T02:59:47;28.70;;;14.30;;
69161;SDS011;56269;51.738;21.652;2022-10-16T03:02:13;27.40;;;14.25;;
69161;SDS011;56269;51.738;21.652;2022-10-16T03:04:40;25.45;;;14.23;;
69161;SDS011;56269;51.738;21.652;2022-10-16T03:07:06;25.30;;;13.98;;
69161;SDS011;56269;51.738;21.652;2022-10-16T03:09:33;30.13;;;14.23;;
69161;SDS011;56269;51.738;21.652;2022-10-16T03:11:59;27.67;;;14.10;;
69161;SDS011;56269;51.738;21.652;2022-10-16T03:14:25;27.90;;;14.65;;
69161;SDS011;56269;51.738;21.652;2022-10-16T03:16:51;28.38;;;14.43;;
69161;SDS011;56269;51.738;21.652;2022-10-16T03:19:17;26.10;;;14.10;;
69161;SDS011;56269;51.738;21.652;2022-10-16T03:21:44;31.20;;;15.27;;
69161;SDS011;56269;51.738;21.652;2022-10-16T03:24:10;25.77;;;14.60;;
69161;SDS011;56269;51.738;21.652;2022-10-16T03:26:36;25.70;;;15.10;;
69161;SDS011;56269;51.738;21.652;2022-10-16T03:29:03;28.75;;;15.88;;
69161;SDS011;56269;51.738;21.652;2022-10-16T03:31:29;29.50;;;15.13;;
69161;SDS011;56269;51.738;21.652;2022-10-16T03:33:55;29.60;;;15.07;;
69161;SDS011;56269;51.738;21.652;2022-10-16T03:36:22;31.05;;;15.35;;
69161;SDS011;56269;51.738;21.652;2022-10-16T03:38:48;24.88;;;14.38;;
69161;SDS011;56269;51.738;21.652;2022-10-16T03:41:14;28.67;;;15.95;;
69161;SDS011;56269;51.738;21.652;2022-10-16T03:43:40;29.67;;;15.80;;
69161;SDS011;56269;51.738;21.652;2022-10-16T03:46:06;25.70;;;15.60;;
69161;SDS011;56269;51.738;21.652;2022-10-16T03:48:32;28.17;;;16.13;;
69161;SDS011;56269;51.738;21.652;2022-10-16T03:50:58;25.17;;;14.68;;
69161;SDS011;56269;51.738;21.652;2022-10-16T03:53:25;29.45;;;15.88;;
69161;SDS011;56269;51.738;21.652;2022-10-16T03:55:51;30.50;;;15.33;;
69161;SDS011;56269;51.738;21.652;2022-10-16T03:58:17;31.75;;;15.18;;
69161;SDS011;56269;51.738;21.652;2022-10-16T04:00:43;31.88;;;15.60;;
69161;SDS011;56269;51.738;21.652;2022-10-16T04:03:10;30.05;;;15.38;;
69161;SDS011;56269;51.738;21.652;2022-10-16T04:05:37;32.95;;;16.35;;
69161;SDS011;56269;51.738;21.652;2022-10-16T04:08:03;28.90;;;15.80;;
69161;SDS011;56269;51.738;21.652;2022-10-16T04:10:29;31.90;;;16.65;;
69161;SDS011;56269;51.738;21.652;2022-10-16T04:12:56;31.88;;;16.70;;
69161;SDS011;56269;51.738;21.652;2022-10-16T04:15:22;30.70;;;16.27;;
69161;SDS011;56269;51.738;21.652;2022-10-16T04:17:49;28.93;;;15.80;;
69161;SDS011;56269;51.738;21.652;2022-10-16T04:20:15;26.48;;;15.40;;
69161;SDS011;56269;51.738;21.652;2022-10-16T04:22:41;31.23;;;16.58;;
69161;SDS011;56269;51.738;21.652;2022-10-16T04:25:07;29.60;;;15.13;;
69161;SDS011;56269;51.738;21.652;2022-10-16T04:27:33;27.45;;;16.15;;
69161;SDS011;56269;51.738;21.652;2022-10-16T04:29:59;27.50;;;15.50;;
69161;SDS011;56269;51.738;21.652;2022-10-16T04:32:26;32.45;;;16.55;;
69161;SDS011;56269;51.738;21.652;2022-10-16T04:34:52;30.38;;;16.75;;
69161;SDS011;56269;51.738;21.652;2022-10-16T04:37:18;26.98;;;15.20;;
69161;SDS011;56269;51.738;21.652;2022-10-16T04:39:48;29.43;;;15.80;;
69161;SDS011;56269;51.738;21.652;2022-10-16T04:42:14;36.10;;;16.60;;
69161;SDS011;56269;51.738;21.652;2022-10-16T04:44:40;28.92;;;16.13;;
69161;SDS011;56269;51.738;21.652;2022-10-16T04:47:06;27.98;;;16.00;;
69161;SDS011;56269;51.738;21.652;2022-10-16T04:49:32;28.97;;;16.47;;
69161;SDS011;56269;51.738;21.652;2022-10-16T04:51:58;28.05;;;14.88;;
69161;SDS011;56269;51.738;21.652;2022-10-16T04:54:24;29.10;;;15.75;;
69161;SDS011;56269;51.738;21.652;2022-10-16T04:56:50;30.35;;;16.33;;
69161;SDS011;56269;51.738;21.652;2022-10-16T04:59:17;31.08;;;16.25;;
69161;SDS011;56269;51.738;21.652;2022-10-16T05:01:44;27.43;;;14.53;;
69161;SDS011;56269;51.738;21.652;2022-10-16T05:04:11;34.03;;;16.60;;
69161;SDS011;56269;51.738;21.652;2022-10-16T05:06:38;29.80;;;16.08;;
69161;SDS011;56269;51.738;21.652;2022-10-16T05:09:04;30.20;;;15.77;;
69161;SDS011;56269;51.738;21.652;2022-10-16T05:11:31;31.65;;;17.25;;
69161;SDS011;56269;51.738;21.652;2022-10-16T05:13:57;30.97;;;15.70;;
69161;SDS011;56269;51.738;21.652;2022-10-16T05:16:23;34.78;;;17.95;;
69161;SDS011;56269;51.738;21.652;2022-10-16T05:18:50;32.45;;;16.80;;
69161;SDS011;56269;51.738;21.652;2022-10-16T05:21:17;32.88;;;16.92;;
69161;SDS011;56269;51.738;21.652;2022-10-16T05:23:43;33.90;;;17.13;;
69161;SDS011;56269;51.738;21.652;2022-10-16T05:26:09;37.58;;;18.10;;
69161;SDS011;56269;51.738;21.652;2022-10-16T05:28:35;33.65;;;16.02;;
69161;SDS011;56269;51.738;21.652;2022-10-16T05:31:05;30.70;;;15.52;;
69161;SDS011;56269;51.738;21.652;2022-10-16T05:33:32;29.65;;;15.73;;
69161;SDS011;56269;51.738;21.652;2022-10-16T05:36:02;29.13;;;14.47;;
69161;SDS011;56269;51.738;21.652;2022-10-16T05:38:30;30.75;;;15.88;;
69161;SDS011;56269;51.738;21.652;2022-10-16T05:40:56;32.25;;;16.05;;
69161;SDS011;56269;51.738;21.652;2022-10-16T05:43:23;28.33;;;15.13;;
69161;SDS011;56269;51.738;21.652;2022-10-16T05:45:59;26.63;;;15.07;;
69161;SDS011;56269;51.738;21.652;2022-10-16T05:48:28;29.13;;;15.03;;
69161;SDS011;56269;51.738;21.652;2022-10-16T05:50:58;29.60;;;15.00;;
69161;SDS011;56269;51.738;21.652;2022-10-16T05:53:24;29.05;;;15.10;;
69161;SDS011;56269;51.738;21.652;2022-10-16T05:55:51;27.23;;;14.18;;
69161;SDS011;56269;51.738;21.652;2022-10-16T05:58:18;29.90;;;15.73;;
69161;SDS011;56269;51.738;21.652;2022-10-16T06:00:44;27.27;;;13.87;;
69161;SDS011;56269;51.738;21.652;2022-10-16T06:03:10;26.40;;;13.68;;
69161;SDS011;56269;51.738;21.652;2022-10-16T06:05:36;26.65;;;13.88;;
69161;SDS011;56269;51.738;21.652;2022-10-16T06:08:02;27.20;;;14.90;;
69161;SDS011;56269;51.738;21.652;2022-10-16T06:10:28;27.70;;;14.60;;
69161;SDS011;56269;51.738;21.652;2022-10-16T06:12:54;26.75;;;13.45;;
69161;SDS011;56269;51.738;21.652;2022-10-16T06:15:20;26.70;;;13.70;;
69161;SDS011;56269;51.738;21.652;2022-10-16T06:17:46;24.55;;;12.15;;
69161;SDS011;56269;51.738;21.652;2022-10-16T06:20:12;26.50;;;14.33;;
69161;SDS011;56269;51.738;21.652;2022-10-16T06:22:38;26.15;;;14.32;;
69161;SDS011;56269;51.738;21.652;2022-10-16T06:25:04;24.55;;;13.75;;
69161;SDS011;56269;51.738;21.652;2022-10-16T06:27:31;26.30;;;14.30;;
69161;SDS011;56269;51.738;21.652;2022-10-16T06:29:57;26.53;;;13.67;;
69161;SDS011;56269;51.738;21.652;2022-10-16T06:32:23;27.65;;;12.65;;
69161;SDS011;56269;51.738;21.652;2022-10-16T06:34:49;23.40;;;13.13;;
69161;SDS011;56269;51.738;21.652;2022-10-16T06:37:15;21.70;;;12.70;;
69161;SDS011;56269;51.738;21.652;2022-10-16T06:39:41;23.27;;;13.03;;
69161;SDS011;56269;51.738;21.652;2022-10-16T06:42:07;22.20;;;12.65;;
69161;SDS011;56269;51.738;21.652;2022-10-16T06:44:34;21.17;;;11.25;;
69161;SDS011;56269;51.738;21.652;2022-10-16T06:46:59;22.90;;;11.70;;
69161;SDS011;56269;51.738;21.652;2022-10-16T06:49:26;24.67;;;12.07;;
69161;SDS011;56269;51.738;21.652;2022-10-16T06:51:53;24.67;;;12.10;;
69161;SDS011;56269;51.738;21.652;2022-10-16T06:54:20;23.27;;;13.00;;
69161;SDS011;56269;51.738;21.652;2022-10-16T06:56:46;21.80;;;10.73;;
69161;SDS011;56269;51.738;21.652;2022-10-16T06:59:12;24.77;;;12.35;;
69161;SDS011;56269;51.738;21.652;2022-10-16T07:01:38;24.07;;;11.53;;
69161;SDS011;56269;51.738;21.652;2022-10-16T07:04:04;25.65;;;12.73;;
69161;SDS011;56269;51.738;21.652;2022-10-16T07:06:31;22.55;;;11.13;;
69161;SDS011;56269;51.738;21.652;2022-10-16T07:09:00;24.42;;;12.05;;
69161;SDS011;56269;51.738;21.652;2022-10-16T07:11:28;23.90;;;12.10;;
69161;SDS011;56269;51.738;21.652;2022-10-16T07:13:54;22.02;;;11.65;;
69161;SDS011;56269;51.738;21.652;2022-10-16T07:16:20;19.40;;;10.75;;
69161;SDS011;56269;51.738;21.652;2022-10-16T07:18:53;18.13;;;9.10;;
69161;SDS011;56269;51.738;21.652;2022-10-16T07:21:24;21.97;;;11.40;;
69161;SDS011;56269;51.738;21.652;2022-10-16T07:23:51;17.90;;;10.88;;
69161;SDS011;56269;51.738;21.652;2022-10-16T07:26:18;22.15;;;11.00;;
69161;SDS011;56269;51.738;21.652;2022-10-16T07:28:45;22.20;;;11.57;;
69161;SDS011;56269;51.738;21.652;2022-10-16T07:31:11;22.67;;;11.73;;
69161;SDS011;56269;51.738;21.652;2022-10-16T07:33:40;19.70;;;11.40;;
69161;SDS011;56269;51.738;21.652;2022-10-16T07:36:08;18.05;;;10.90;;
69161;SDS011;56269;51.738;21.652;2022-10-16T07:38:34;18.60;;;9.70;;
69161;SDS011;56269;51.738;21.652;2022-10-16T07:41:01;18.92;;;11.15;;
69161;SDS011;56269;51.738;21.652;2022-10-16T07:43:30;21.67;;;10.20;;
69161;SDS011;56269;51.738;21.652;2022-10-16T07:45:56;16.75;;;10.02;;
69161;SDS011;56269;51.738;21.652;2022-10-16T07:48:32;18.30;;;10.90;;
69161;SDS011;56269;51.738;21.652;2022-10-16T07:51:01;17.88;;;10.35;;
69161;SDS011;56269;51.738;21.652;2022-10-16T07:53:30;20.00;;;9.07;;
69161;SDS011;56269;51.738;21.652;2022-10-16T07:56:00;18.73;;;9.90;;
69161;SDS011;56269;51.738;21.652;2022-10-16T07:58:28;18.60;;;10.23;;
69161;SDS011;56269;51.738;21.652;2022-10-16T08:00:55;18.67;;;10.02;;
69161;SDS011;56269;51.738;21.652;2022-10-16T08:03:22;18.90;;;9.98;;
69161;SDS011;56269;51.738;21.652;2022-10-16T08:05:49;22.42;;;9.63;;
69161;SDS011;56269;51.738;21.652;2022-10-16T08:08:16;18.43;;;10.83;;
69161;SDS011;56269;51.738;21.652;2022-10-16T08:10:43;17.65;;;10.18;;
69161;SDS011;56269;51.738;21.652;2022-10-16T08:13:10;19.35;;;10.35;;
69161;SDS011;56269;51.738;21.652;2022-10-16T08:15:36;16.77;;;9.02;;
69161;SDS011;56269;51.738;21.652;2022-10-16T08:18:03;18.58;;;9.50;;
69161;SDS011;56269;51.738;21.652;2022-10-16T08:20:31;20.70;;;9.97;;
69161;SDS011;56269;51.738;21.652;2022-10-16T08:22:58;17.45;;;9.90;;
69161;SDS011;56269;51.738;21.652;2022-10-16T08:25:25;19.88;;;10.30;;
69161;SDS011;56269;51.738;21.652;2022-10-16T08:27:53;16.08;;;9.02;;
69161;SDS011;56269;51.738;21.652;2022-10-16T08:30:20;16.85;;;9.70;;
69161;SDS011;56269;51.738;21.652;2022-10-16T08:32:48;18.40;;;10.03;;
69161;SDS011;56269;51.738;21.652;2022-10-16T08:35:15;19.30;;;9.13;;
69161;SDS011;56269;51.738;21.652;2022-10-16T08:37:42;19.08;;;10.13;;
69161;SDS011;56269;51.738;21.652;2022-10-16T08:40:15;18.35;;;9.68;;
69161;SDS011;56269;51.738;21.652;2022-10-16T08:42:59;15.50;;;8.52;;
69161;SDS011;56269;51.738;21.652;2022-10-16T08:50:36;16.00;;;8.63;;
69161;SDS011;56269;51.738;21.652;2022-10-16T08:53:05;15.20;;;9.57;;
69161;SDS011;56269;51.738;21.652;2022-10-16T08:58:19;17.52;;;9.48;;
69161;SDS011;56269;51.738;21.652;2022-10-16T09:00:48;16.70;;;8.85;;
69161;SDS011;56269;51.738;21.652;2022-10-16T09:14:15;14.35;;;8.32;;
69161;SDS011;56269;51.738;21.652;2022-10-16T09:16:45;16.45;;;8.75;;
69161;SDS011;56269;51.738;21.652;2022-10-16T09:19:25;16.50;;;9.10;;
69161;SDS011;56269;51.738;21.652;2022-10-16T09:22:08;15.87;;;8.93;;
69161;SDS011;56269;51.738;21.652;2022-10-16T09:24:38;15.82;;;8.32;;
69161;SDS011;56269;51.738;21.652;2022-10-16T09:27:04;16.33;;;9.52;;
69161;SDS011;56269;51.738;21.652;2022-10-16T09:29:30;16.83;;;9.63;;
69161;SDS011;56269;51.738;21.652;2022-10-16T09:31:56;15.50;;;8.53;;
69161;SDS011;56269;51.738;21.652;2022-10-16T09:34:39;14.80;;;9.20;;
69161;SDS011;56269;51.738;21.652;2022-10-16T09:37:13;15.05;;;9.05;;
69161;SDS011;56269;51.738;21.652;2022-10-16T09:39:46;15.30;;;7.88;;
69161;SDS011;56269;51.738;21.652;2022-10-16T09:42:15;19.98;;;8.80;;
69161;SDS011;56269;51.738;21.652;2022-10-16T09:44:50;14.83;;;7.73;;
69161;SDS011;56269;51.738;21.652;2022-10-16T09:47:25;15.93;;;9.45;;
69161;SDS011;56269;51.738;21.652;2022-10-16T09:49:54;15.27;;;9.07;;
69161;SDS011;56269;51.738;21.652;2022-10-16T09:52:23;14.50;;;8.70;;
69161;SDS011;56269;51.738;21.652;2022-10-16T09:54:50;14.80;;;7.93;;
69161;SDS011;56269;51.738;21.652;2022-10-16T09:57:20;15.43;;;8.57;;
69161;SDS011;56269;51.738;21.652;2022-10-16T09:59:50;13.95;;;8.05;;
69161;SDS011;56269;51.738;21.652;2022-10-16T10:02:30;14.80;;;8.43;;
69161;SDS011;56269;51.738;21.652;2022-10-16T10:05:00;17.60;;;8.38;;
69161;SDS011;56269;51.738;21.652;2022-10-16T10:07:28;13.32;;;8.23;;
69161;SDS011;56269;51.738;21.652;2022-10-16T10:09:59;15.83;;;7.83;;
69161;SDS011;56269;51.738;21.652;2022-10-16T10:12:27;14.93;;;8.70;;
69161;SDS011;56269;51.738;21.652;2022-10-16T10:14:56;14.35;;;7.93;;
69161;SDS011;56269;51.738;21.652;2022-10-16T10:17:55;14.05;;;7.68;;
69161;SDS011;56269;51.738;21.652;2022-10-16T10:20:24;13.38;;;7.97;;
69161;SDS011;56269;51.738;21.652;2022-10-16T10:22:57;15.67;;;8.20;;
69161;SDS011;56269;51.738;21.652;2022-10-16T10:25:29;13.88;;;7.82;;
69161;SDS011;56269;51.738;21.652;2022-10-16T10:38:52;13.85;;;7.47;;
69161;SDS011;56269;51.738;21.652;2022-10-16T10:46:42;13.48;;;8.23;;
69161;SDS011;56269;51.738;21.652;2022-10-16T10:55:02;14.65;;;8.07;;
69161;SDS011;56269;51.738;21.652;2022-10-16T10:57:36;14.18;;;7.70;;
69161;SDS011;56269;51.738;21.652;2022-10-16T11:05:43;16.10;;;8.43;;
69161;SDS011;56269;51.738;21.652;2022-10-16T11:08:45;14.73;;;7.78;;
69161;SDS011;56269;51.738;21.652;2022-10-16T11:13:55;14.68;;;7.28;;
69161;SDS011;56269;51.738;21.652;2022-10-16T11:16:49;15.73;;;8.30;;
69161;SDS011;56269;51.738;21.652;2022-10-16T11:22:15;13.10;;;7.55;;
69161;SDS011;56269;51.738;21.652;2022-10-16T11:24:49;14.25;;;7.40;;
69161;SDS011;56269;51.738;21.652;2022-10-16T11:27:39;12.63;;;7.60;;
69161;SDS011;56269;51.738;21.652;2022-10-16T11:30:26;13.37;;;6.63;;
69161;SDS011;56269;51.738;21.652;2022-10-16T11:33:04;13.18;;;6.95;;
69161;SDS011;56269;51.738;21.652;2022-10-16T11:35:53;13.88;;;7.30;;
69161;SDS011;56269;51.738;21.652;2022-10-16T11:38:39;11.95;;;6.70;;
69161;SDS011;56269;51.738;21.652;2022-10-16T11:44:25;13.37;;;7.07;;
69161;SDS011;56269;51.738;21.652;2022-10-16T11:49:32;14.73;;;8.05;;
69161;SDS011;56269;51.738;21.652;2022-10-16T11:54:59;15.43;;;7.80;;
69161;SDS011;56269;51.738;21.652;2022-10-16T11:57:29;13.63;;;7.73;;
69161;SDS011;56269;51.738;21.652;2022-10-16T12:00:02;12.82;;;8.20;;
69161;SDS011;56269;51.738;21.652;2022-10-16T12:05:47;16.13;;;7.53;;
69161;SDS011;56269;51.738;21.652;2022-10-16T12:08:35;12.82;;;7.38;;
69161;SDS011;56269;51.738;21.652;2022-10-16T12:14:03;12.75;;;7.47;;
69161;SDS011;56269;51.738;21.652;2022-10-16T12:16:54;14.25;;;7.50;;
69161;SDS011;56269;51.738;21.652;2022-10-16T12:19:22;12.02;;;7.50;;
69161;SDS011;56269;51.738;21.652;2022-10-16T12:21:50;13.60;;;8.48;;
69161;SDS011;56269;51.738;21.652;2022-10-16T12:24:30;14.33;;;7.57;;
69161;SDS011;56269;51.738;21.652;2022-10-16T12:27:02;14.90;;;7.63;;
69161;SDS011;56269;51.738;21.652;2022-10-16T12:32:05;13.80;;;7.07;;
69161;SDS011;56269;51.738;21.652;2022-10-16T12:35:26;14.90;;;8.07;;
69161;SDS011;56269;51.738;21.652;2022-10-16T12:38:04;12.90;;;8.10;;
69161;SDS011;56269;51.738;21.652;2022-10-16T12:40:33;15.55;;;8.32;;
69161;SDS011;56269;51.738;21.652;2022-10-16T12:43:12;13.68;;;8.07;;
69161;SDS011;56269;51.738;21.652;2022-10-16T12:46:00;14.00;;;8.10;;
69161;SDS011;56269;51.738;21.652;2022-10-16T12:48:47;14.48;;;8.00;;
69161;SDS011;56269;51.738;21.652;2022-10-16T12:56:49;13.25;;;8.30;;
69161;SDS011;56269;51.738;21.652;2022-10-16T13:13:19;14.60;;;7.97;;
69161;SDS011;56269;51.738;21.652;2022-10-16T13:24:07;16.65;;;8.40;;
69161;SDS011;56269;51.738;21.652;2022-10-16T13:26:42;15.10;;;8.52;;
69161;SDS011;56269;51.738;21.652;2022-10-16T13:29:14;14.50;;;8.13;;
69161;SDS011;56269;51.738;21.652;2022-10-16T13:31:41;13.10;;;7.13;;
69161;SDS011;56269;51.738;21.652;2022-10-16T13:34:11;13.57;;;8.23;;
69161;SDS011;56269;51.738;21.652;2022-10-16T13:39:24;15.68;;;7.88;;
69161;SDS011;56269;51.738;21.652;2022-10-16T13:42:13;14.27;;;8.00;;
69161;SDS011;56269;51.738;21.652;2022-10-16T13:44:50;14.53;;;8.57;;
69161;SDS011;56269;51.738;21.652;2022-10-16T13:47:22;15.27;;;8.43;;
69161;SDS011;56269;51.738;21.652;2022-10-16T13:50:03;14.43;;;8.77;;
69161;SDS011;56269;51.738;21.652;2022-10-16T13:52:37;15.15;;;7.63;;
69161;SDS011;56269;51.738;21.652;2022-10-16T13:55:13;14.85;;;8.40;;
69161;SDS011;56269;51.738;21.652;2022-10-16T13:57:41;14.20;;;8.23;;
69161;SDS011;56269;51.738;21.652;2022-10-16T14:03:11;15.82;;;8.73;;
69161;SDS011;56269;51.738;21.652;2022-10-16T14:05:59;14.57;;;8.00;;
69161;SDS011;56269;51.738;21.652;2022-10-16T14:08:28;14.60;;;9.20;;
69161;SDS011;56269;51.738;21.652;2022-10-16T14:10:56;15.73;;;9.30;;
69161;SDS011;56269;51.738;21.652;2022-10-16T14:13:27;13.52;;;8.02;;
69161;SDS011;56269;51.738;21.652;2022-10-16T14:15:56;15.70;;;9.63;;
69161;SDS011;56269;51.738;21.652;2022-10-16T14:18:24;15.20;;;9.05;;
69161;SDS011;56269;51.738;21.652;2022-10-16T14:20:53;15.30;;;9.40;;
69161;SDS011;56269;51.738;21.652;2022-10-16T14:23:23;20.07;;;9.53;;
69161;SDS011;56269;51.738;21.652;2022-10-16T14:26:05;18.10;;;10.00;;
69161;SDS011;56269;51.738;21.652;2022-10-16T14:28:41;17.52;;;9.77;;
69161;SDS011;56269;51.738;21.652;2022-10-16T14:33:57;16.83;;;9.70;;
69161;SDS011;56269;51.738;21.652;2022-10-16T14:36:26;17.03;;;9.97;;
69161;SDS011;56269;51.738;21.652;2022-10-16T14:39:03;17.20;;;10.10;;
69161;SDS011;56269;51.738;21.652;2022-10-16T14:41:32;14.35;;;8.57;;
69161;SDS011;56269;51.738;21.652;2022-10-16T14:44:09;17.15;;;10.00;;
69161;SDS011;56269;51.738;21.652;2022-10-16T14:46:38;19.10;;;10.25;;
69161;SDS011;56269;51.738;21.652;2022-10-16T14:51:35;17.50;;;10.18;;
69161;SDS011;56269;51.738;21.652;2022-10-16T14:54:10;19.70;;;11.20;;
69161;SDS011;56269;51.738;21.652;2022-10-16T14:56:51;16.98;;;10.77;;
69161;SDS011;56269;51.738;21.652;2022-10-16T15:01:57;17.90;;;10.20;;
69161;SDS011;56269;51.738;21.652;2022-10-16T15:04:23;19.00;;;10.98;;
69161;SDS011;56269;51.738;21.652;2022-10-16T15:06:50;22.25;;;12.75;;
69161;SDS011;56269;51.738;21.652;2022-10-16T15:09:16;22.17;;;12.27;;
69161;SDS011;56269;51.738;21.652;2022-10-16T15:11:42;22.60;;;12.30;;
69161;SDS011;56269;51.738;21.652;2022-10-16T15:14:12;18.67;;;11.33;;
69161;SDS011;56269;51.738;21.652;2022-10-16T15:16:39;20.83;;;12.75;;
69161;SDS011;56269;51.738;21.652;2022-10-16T15:19:05;20.35;;;11.73;;
69161;SDS011;56269;51.738;21.652;2022-10-16T15:21:32;19.73;;;11.02;;
69161;SDS011;56269;51.738;21.652;2022-10-16T15:23:58;18.57;;;10.40;;
69161;SDS011;56269;51.738;21.652;2022-10-16T15:26:26;18.63;;;10.10;;
69161;SDS011;56269;51.738;21.652;2022-10-16T15:28:53;17.45;;;9.93;;
69161;SDS011;56269;51.738;21.652;2022-10-16T15:31:20;15.05;;;9.32;;
69161;SDS011;56269;51.738;21.652;2022-10-16T15:33:49;18.92;;;10.65;;
69161;SDS011;56269;51.738;21.652;2022-10-16T15:36:25;20.43;;;11.43;;
69161;SDS011;56269;51.738;21.652;2022-10-16T15:38:52;18.08;;;10.82;;
69161;SDS011;56269;51.738;21.652;2022-10-16T15:41:19;19.58;;;10.90;;
69161;SDS011;56269;51.738;21.652;2022-10-16T15:43:47;20.25;;;10.70;;
69161;SDS011;56269;51.738;21.652;2022-10-16T15:46:14;23.33;;;12.57;;
69161;SDS011;56269;51.738;21.652;2022-10-16T15:48:43;23.30;;;13.77;;
69161;SDS011;56269;51.738;21.652;2022-10-16T15:51:09;31.90;;;15.35;;
69161;SDS011;56269;51.738;21.652;2022-10-16T15:53:35;46.55;;;21.38;;
69161;SDS011;56269;51.738;21.652;2022-10-16T15:56:02;42.83;;;19.35;;
69161;SDS011;56269;51.738;21.652;2022-10-16T15:58:29;32.97;;;16.42;;
69161;SDS011;56269;51.738;21.652;2022-10-16T16:00:56;24.13;;;12.97;;
69161;SDS011;56269;51.738;21.652;2022-10-16T16:03:26;21.95;;;11.68;;
69161;SDS011;56269;51.738;21.652;2022-10-16T16:05:53;20.45;;;11.50;;
69161;SDS011;56269;51.738;21.652;2022-10-16T16:08:19;19.23;;;11.55;;
69161;SDS011;56269;51.738;21.652;2022-10-16T16:10:45;18.73;;;10.27;;
69161;SDS011;56269;51.738;21.652;2022-10-16T16:13:22;18.90;;;10.27;;
69161;SDS011;56269;51.738;21.652;2022-10-16T16:15:48;17.65;;;10.70;;
69161;SDS011;56269;51.738;21.652;2022-10-16T16:18:14;18.77;;;10.75;;
69161;SDS011;56269;51.738;21.652;2022-10-16T16:20:40;17.58;;;10.60;;
69161;SDS011;56269;51.738;21.652;2022-10-16T16:23:06;18.37;;;10.37;;
69161;SDS011;56269;51.738;21.652;2022-10-16T16:25:33;18.02;;;10.85;;
69161;SDS011;56269;51.738;21.652;2022-10-16T16:27:59;20.35;;;10.88;;
69161;SDS011;56269;51.738;21.652;2022-10-16T16:30:25;20.00;;;11.45;;
69161;SDS011;56269;51.738;21.652;2022-10-16T16:32:51;19.13;;;11.17;;
69161;SDS011;56269;51.738;21.652;2022-10-16T16:35:17;19.27;;;11.07;;
69161;SDS011;56269;51.738;21.652;2022-10-16T16:37:43;21.55;;;11.60;;
69161;SDS011;56269;51.738;21.652;2022-10-16T16:40:10;19.38;;;11.15;;